x

Western Caribbean - 195 Nm Wsw Of Negril Jamiaca (42057) Wave Buoy

8:50 - Thu 3rd Sep 2015 All times are UTC.

  • Sig Wave height 3.6ft
  • Swell Direction
  • Peak Period 8s
  • Average Period 5s
  • Wind
    13mph, 16mph gusts
  • Sea Temp 85°f
  • Air Temp 84°f
  • Sea Pressure 1012mb

More Historic Weather Station data

Upgrade to MSW Pro to gain access to the past 30 days of data for over 8000 Wavebouys and Weather Stations around the globe.

Join Pro

Comparision Forecast

View Surf forecast
   
jeu. 09/03 8:50 3.5ft 8s 5s 13 16 mph 1012mb 85f 84f
7:50 3.5ft 8s 5s 13 16 mph 1012.2mb 85f 84f
6:50 3.5ft 7s 5s 13
mph
1012.6mb 85f 84f
5:50 3.5ft 7s 5s 16 18 mph 1013.2mb 85f 84f
4:50 3.5ft 8s 5s 13 16 mph 1013.8mb 85f 85f
3:50 3.5ft 8s 5s 13 16 mph 1013.8mb 85f 85f
2:50 4ft 8s 5s 16 18 mph 1013.4mb 85f 85f
1:50 3.5ft 7s 5s 16 18 mph 1013.3mb 85f 85f
12:50 3.5ft 6s 5s 13 16 mph 1012.7mb 85f 85f
mer. 09/02 11:50 4ft 8s 5s 13 16 mph 1012.4mb 85f 85f
10:50 3.5ft 8s 5s 13
mph
1012.6mb 85f 85f
9:50 3.5ft 8s 5s 11 13 mph 1012.3mb 85f 85f
8:50 3.5ft 8s 5s 13 16 mph 1012.6mb 85f 85f
7:50 3.5ft 8s 5s 13
mph
1013.1mb 85f 85f
6:50 4.5ft 8s 5s 13 16 mph 1013.4mb 85f 85f
5:50 3.5ft 8s 5s 11 13 mph 1014.2mb 85f 85f
4:50 3.5ft 8s 5s 11 13 mph 1014.7mb 85f 85f
3:50 3.5ft 8s 5s 13 16 mph 1014.7mb 85f 85f
2:50 3.5ft 8s 5s 11 13 mph 1014.7mb 84f 85f
1:50 4.5ft 8s 5s 11 13 mph 1014.8mb 84f 85f
12:50 4ft 8s 5s 11 13 mph 1014.7mb 84f 85f
11:50 4.5ft 7s 5s 16 18 mph 1014.2mb 84f 84f
10:50 4.5ft 9s 5s 13 18 mph 1013.9mb 84f 84f
9:50 4.5ft 7s 5s 16 18 mph 1013.6mb 84f 84f
8:50 4.5ft 6s 5s 16 20 mph 1013.5mb 84f 84f
7:50 4.5ft 6s 5s 16 18 mph 1013.7mb 84f 84f
6:50 4.5ft 6s 5s 18 20 mph 1014.1mb 84f 84f
5:50 4.5ft 6s 5s 16 18 mph 1014.6mb 84f 85f
4:50 5ft 6s 5s 16 18 mph 1015.2mb 84f 85f
3:50 5.5ft 6s 5s 16 20 mph 1015.4mb 84f 85f
2:50 5ft 6s 5s 16 20 mph 1015.2mb 85f 85f
1:50 5ft 7s 5s 18 20 mph 1014.6mb 85f 85f
12:50 5.5ft 6s 5s 18 20 mph 1013.5mb 84f 85f
mar. 09/01 11:50 6ft 6s 5s 18 25 mph 1012.6mb 84f 85f
10:50 5ft 5s 5s 20 22 mph 1012.1mb 84f 85f
9:50 5ft 5s 5s 20 25 mph 1012mb 84f 85f
8:50 4.5ft 5s 5s 20 25 mph 1012.3mb 84f 85f
7:50 5ft 8s 5s 20 25 mph 1012.3mb 85f 85f
6:50 5ft 7s 5s 20 25 mph 1013mb 85f 85f
5:50 5ft 7s 5s 18 22 mph 1013.6mb 85f 84f
4:50 5ft 7s 5s 20 22 mph 1014mb 85f 84f
3:50 5ft 6s 5s 20 25 mph 1014.4mb 84f 84f
2:50 5ft 8s 5s 18 20 mph 1015mb 84f 83f
1:50 4.5ft 6s 5s 13 18 mph 1014.8mb 84f 82f
12:50 4.5ft 7s 5s 18 29 mph 1014.4mb 84f 84f
11:50 5ft 7s 5s 13 16 mph 1013.7mb 84f 84f
10:50 4.5ft 6s 5s 18 20 mph 1013.6mb 85f 84f
9:50 4.5ft 7s 5s 13 16 mph 1013.3mb 85f 84f
8:50 4ft 6s 5s 16 18 mph 1012.9mb 85f 84f
7:50 4.5ft 7s 5s 13 16 mph 1013.3mb 85f 84f
6:50 4.5ft 7s 5s 11 13 mph 1013.9mb 84f 83f
5:50 4.5ft 7s 5s 16 18 mph 1014.1mb 85f 84f
4:50 5ft 7s 5s 13 18 mph 1014.6mb 85f 85f
3:50 4.5ft 7s 5s 13 18 mph 1015mb 85f 85f
2:50 5ft 6s 5s 11 13 mph 1014.5mb 85f 84f
1:50 5ft 7s 5s 13 16 mph 1013.9mb 85f 84f
12:50 5ft 8s 5s 13 16 mph 1013.2mb 85f 85f
lun. 08/31 11:50 5.5ft 6s 5s 13
mph
1012.7mb 85f 85f
10:50 5.5ft 9s 5s 16 20 mph 1011.8mb 85f 85f
9:50 5.5ft 9s 6s 13 18 mph 1011.8mb 85f 85f
8:50 5.5ft 6s 5s 16 20 mph 1012.3mb 85f 85f
7:50 5ft 7s 5s 16 18 mph 1012.7mb 85f 85f
6:50 5ft 9s 5s 16 18 mph 1013.4mb 85f 85f
5:50 6ft 8s 5s 16 20 mph 1013.7mb 85f 85f
4:50 5.5ft 9s 6s 18 22 mph 1013.5mb 85f 84f
3:50 5ft 9s 5s 18 22 mph 1013.7mb 85f 85f
2:50 5ft 9s 5s 18 22 mph 1013.4mb 85f 85f
1:50 4.5ft 9s 5s 18 22 mph 1013mb 85f 85f
12:50 4.5ft 9s 6s 16 18 mph 1012.8mb 85f 85f
11:50 4.5ft 9s 5s 13 16 mph 1012.2mb 85f 84f
10:50 4.5ft 7s 5s 13 18 mph 1012mb 85f 84f
9:50 4.5ft 8s 5s 18 20 mph 1011.9mb 85f 84f
8:50 5ft 8s 6s 18 20 mph 1012mb 85f 84f
7:50 4.5ft 10s 5s 16 18 mph 1012.4mb 85f 84f
6:50 4.5ft 7s 5s 16 18 mph 1012.9mb 85f 84f
5:50 5ft 7s 5s 18 20 mph 1013.2mb 85f 84f
4:50 5ft 6s 5s 16 20 mph 1013.8mb 85f 85f
3:50 5ft 7s 5s 16 20 mph 1013.5mb 85f 84f
2:50 5ft 7s 5s 18 20 mph 1013.5mb 85f 85f
1:50 5.5ft 6s 5s 16 18 mph 1012.9mb 85f 85f
12:50 5ft 8s 5s 16 20 mph 1012.5mb 85f 85f
dim. 08/30 11:50 5.5ft 8s 5s 18 20 mph 1011.9mb 85f 85f
10:50 6ft 7s 6s 16 20 mph 1011.3mb 85f 85f
9:50 5.5ft 7s 6s 20 22 mph 1010.8mb 85f 85f
8:50 6ft 9s 6s 16 20 mph 1011.2mb 85f 85f
7:50 5ft 10s 6s 16 18 mph 1011.8mb 85f 85f
6:50 5.5ft 8s 6s 16 18 mph 1012.8mb 85f 85f
5:50 6ft 11s 6s 16 18 mph 1013.4mb 85f 85f
4:50 5.5ft 7s 6s 16 18 mph 1013.3mb 85f 85f
3:50 5.5ft 7s 6s 18 20 mph 1012.9mb 85f 85f
2:50 5ft 7s 5s 18 20 mph 1012.9mb 85f 85f
1:50 5.5ft 11s 6s 18 20 mph 1012.9mb 84f 85f
12:50 5ft 11s 5s 18 22 mph 1012.2mb 84f 85f
11:50 4.5ft 12s 5s 18 22 mph 1011.4mb 84f 85f
10:50 5ft 12s 5s 18 22 mph 1010.8mb 84f 85f
9:50 4.5ft 12s 5s 20 22 mph 1009.9mb 84f 85f